UAL186 PTYA-PGUM
Flight info
| Callsign | UAL186 |
|---|---|
| Flight time | N/A |
| Altitude | 35000 |
| Route | NIVZY IDAAS |
| Aircraft | B38M/M-SDE1FGHILORVWXY/HB1 |
Departure
| Time | N/A |
|---|---|
| Airport | Yap International Airport (PTYA) |
Arrival
| Time | 2026-04-29 20:42 |
|---|---|
| Airport | Antonio B. Won Pat International Airport (PGUM) |
| Time | Latitude | Longitude | Altitude | Speed | Heading |
|---|---|---|---|---|---|
| 2026-04-29 20:30 | 13.15785 | 144.19841 | 9982 ft | 319 kts | 60° |
| 2026-04-29 20:30 | 13.16923 | 144.21760 | 9626 ft | 310 kts | 60° |
| 2026-04-29 20:30 | 13.18026 | 144.23619 | 9281 ft | 300 kts | 60° |
| 2026-04-29 20:31 | 13.19093 | 144.25421 | 8983 ft | 291 kts | 60° |
| 2026-04-29 20:31 | 13.20127 | 144.27164 | 8696 ft | 282 kts | 60° |
| 2026-04-29 20:31 | 13.21128 | 144.28854 | 8411 ft | 273 kts | 60° |
| 2026-04-29 20:31 | 13.22099 | 144.30491 | 8132 ft | 265 kts | 60° |
| 2026-04-29 20:32 | 13.23042 | 144.32082 | 7870 ft | 259 kts | 60° |
| 2026-04-29 20:32 | 13.23971 | 144.33651 | 7618 ft | 256 kts | 60° |
| 2026-04-29 20:32 | 13.24889 | 144.35201 | 7366 ft | 253 kts | 60° |
| 2026-04-29 20:32 | 13.25799 | 144.36737 | 7096 ft | 250 kts | 60° |
| 2026-04-29 20:33 | 13.26698 | 144.38257 | 6845 ft | 248 kts | 60° |
| 2026-04-29 20:33 | 13.27589 | 144.39760 | 6602 ft | 245 kts | 60° |
| 2026-04-29 20:33 | 13.28470 | 144.41250 | 6354 ft | 243 kts | 60° |
| 2026-04-29 20:33 | 13.29346 | 144.42730 | 6082 ft | 241 kts | 60° |
| 2026-04-29 20:34 | 13.30212 | 144.44194 | 5830 ft | 239 kts | 61° |
| 2026-04-29 20:34 | 13.31069 | 144.45642 | 5582 ft | 236 kts | 61° |
| 2026-04-29 20:34 | 13.31903 | 144.47051 | 5347 ft | 233 kts | 60° |
| 2026-04-29 20:34 | 13.32760 | 144.48501 | 5149 ft | 234 kts | 60° |
| 2026-04-29 20:35 | 13.33579 | 144.49884 | 5037 ft | 225 kts | 60° |
| 2026-04-29 20:35 | 13.34374 | 144.51229 | 4932 ft | 216 kts | 61° |
| 2026-04-29 20:35 | 13.35136 | 144.52519 | 4828 ft | 207 kts | 61° |
| 2026-04-29 20:35 | 13.35868 | 144.53758 | 4692 ft | 201 kts | 61° |
| 2026-04-29 20:36 | 13.36606 | 144.54997 | 4609 ft | 206 kts | 58° |
| 2026-04-29 20:36 | 13.37479 | 144.56190 | 4538 ft | 210 kts | 56° |
| 2026-04-29 20:36 | 13.38258 | 144.57448 | 4443 ft | 208 kts | 63° |
| 2026-04-29 20:36 | 13.38927 | 144.58760 | 4309 ft | 207 kts | 65° |
| 2026-04-29 20:37 | 13.39552 | 144.60093 | 4094 ft | 209 kts | 66° |
| 2026-04-29 20:37 | 13.40173 | 144.61453 | 3784 ft | 212 kts | 66° |
| 2026-04-29 20:37 | 13.40799 | 144.62828 | 3473 ft | 213 kts | 66° |
| 2026-04-29 20:37 | 13.41427 | 144.64206 | 3185 ft | 214 kts | 66° |
| 2026-04-29 20:38 | 13.42056 | 144.65588 | 2898 ft | 214 kts | 66° |
| 2026-04-29 20:38 | 13.42686 | 144.66970 | 2612 ft | 213 kts | 66° |
| 2026-04-29 20:38 | 13.43298 | 144.68317 | 2408 ft | 202 kts | 66° |
| 2026-04-29 20:38 | 13.43886 | 144.69608 | 2098 ft | 197 kts | 66° |
| 2026-04-29 20:39 | 13.44449 | 144.70840 | 1831 ft | 183 kts | 67° |
| 2026-04-29 20:39 | 13.44943 | 144.71905 | 1544 ft | 152 kts | 68° |
| 2026-04-29 20:39 | 13.45401 | 144.72920 | 1310 ft | 145 kts | 65° |
| 2026-04-29 20:39 | 13.45814 | 144.73817 | 1238 ft | 137 kts | 63° |
| 2026-04-29 20:40 | 13.46216 | 144.74731 | 1045 ft | 145 kts | 65° |
| 2026-04-29 20:40 | 13.46637 | 144.75655 | 956 ft | 139 kts | 64° |
| 2026-04-29 20:40 | 13.47037 | 144.76535 | 767 ft | 138 kts | 66° |
| 2026-04-29 20:40 | 13.47442 | 144.77429 | 537 ft | 138 kts | 63° |
| 2026-04-29 20:41 | 13.47855 | 144.78322 | 321 ft | 138 kts | 64° |
| 2026-04-29 20:41 | 13.48234 | 144.79147 | 280 ft | 114 kts | 64° |
| 2026-04-29 20:41 | 13.48540 | 144.79816 | 289 ft | 94 kts | 64° |
| 2026-04-29 20:41 | 13.48793 | 144.80369 | 299 ft | 76 kts | 65° |
| 2026-04-29 20:42 | 13.48961 | 144.80742 | 300 ft | 37 kts | 65° |
| 2026-04-29 20:42 | 13.49082 | 144.80923 | 301 ft | 28 kts | 28° |
| 2026-04-29 20:42 | 13.49258 | 144.81011 | 301 ft | 28 kts | 24° |
| 2026-04-29 20:42 | 13.49412 | 144.81032 | 300 ft | 21 kts | 329° |
| 2026-04-29 20:43 | 13.49534 | 144.80957 | 299 ft | 17 kts | 318° |
| 2026-04-29 20:43 | 13.49519 | 144.80847 | 301 ft | 17 kts | 238° |
| 2026-04-29 20:43 | 13.49479 | 144.80794 | 299 ft | 7 kts | 196° |
| 2026-04-29 20:43 | 13.49429 | 144.80812 | 301 ft | 5 kts | 151° |
| 2026-04-29 20:44 | 13.49420 | 144.80817 | 301 ft | 1 kts | 152° |
| 2026-04-29 20:44 | 13.49420 | 144.80818 | 301 ft | 0 kts | 152° |